Alba, TX

9:05 PM CST on December 17, 2014 (GMT -0600)
Majors | Change Station
CLOSE
Current Station
Airport
Location: Greenville,
Elevation: 535 ft
Nearby Weather Stations

Elev 535 ft 33.07 °N, 96.07 °W | Updated 10 minutes ago

Rain
Rain
39 °F
Feels Like 35 °F
N
6
Wind Variable Wind from NE

Today
High -- | Low -- °F
--% Chance of Precip.
Yesterday
High -- | Low -- °F
Precip. -- in
7:18 AM 5:18 PM
Waning Crescent, 18% visible
Pressure 30.19 in
Visibility 10.0 miles
Clouds Overcast 600 ft
Windchill 35 °F
Dew Point 37 °F
Humidity 93%
Rainfall 0.50 in
Snow Depth Not available.
UV 0 out of 12
Pollen 8.20 out of 12
Air Quality Not available.
Flu Activity Not available.
METAR KGVT 180255Z AUTO 05005KT 10SM OVC006 04/03 A3019 RMK AO2 P0001

More Conditions Fewer Conditions

Pressure 30.19 in
Visibility 10.0 miles
Clouds Overcast 600 ft
Windchill 35 °F
Dew Point 37 °F
Humidity 93%
Rainfall 0.50 in
Snow Depth Not available.
UV 0 out of 12
Pollen 8.20 out of 12
Air Quality Not available.
Flu Activity Not available.
METAR KGVT 180255Z AUTO 05005KT 10SM OVC006 04/03 A3019 RMK AO2 P0001

More Conditions Fewer Conditions

Nowcast | as of 8:40 PM CST on December 17, 2014

Look for areas of light to moderate rain showers to continue shifting east northeast across much of East Texas...southeast Oklahoma...southwest Arkansas...and eventually into extreme northwest Louisiana...through late evening. Rainfall amounts will range from a few hundredths to around a tenth of an inch over the next couple of hours...with isolated amounts up to a quarter of an inch possible. This rainfall will eventually move into the Shreveport...Bossier City areas between 930 and 10 PM.

×

10-Day Weather Forecast

Almanac

Astronomy

Dec. 17, 2014 Rise Set
Actual Time
Civil Twilight
Nautical Twilight
Astronomical Twilight
Moon
Length of Visible Light
Length of Day
Tomorrow will be .
, % of the Moon is Illuminated

Today's Extremes

State Highs State Lows

Community

WunderPhotos

Upload Photos

1,778,872 photos uploaded!

WunderBlogs® & News

Nearby

Air Quality

  Air Quality AQ Index Pollutant
Not available.

Snow Depth

Station Depth Elevation

Earthquake Activity

City Distance Mag. Time & Date
Minimum magnitude displayed is 2.5.

Coastal Water Temperatures

Place Temperature

Nearby Weather Stations